sensor_id;sensor_type;location;lat;lon;timestamp;pressure;altitude;pressure_sealevel;temperature;humidity
45864;BME280;31579;52.354;16.974;2023-03-26T00:00:49;469.5;;;-146.1;100.0
45864;BME280;31579;52.354;16.974;2023-03-26T00:01:53;469.3;;;-146.1;100.0
45864;BME280;31579;52.354;16.974;2023-03-26T00:02:57;469.3;;;-146.1;100.0
45864;BME280;31579;52.354;16.974;2023-03-26T00:04:07;454.6;;;-146.1;100.0
45864;BME280;31579;52.354;16.974;2023-03-26T00:05:11;458.1;;;-146.1;100.0
45864;BME280;31579;52.354;16.974;2023-03-26T00:06:15;461.0;;;-146.1;100.0
45864;BME280;31579;52.354;16.974;2023-03-26T00:07:19;463.0;;;-146.1;100.0
45864;BME280;31579;52.354;16.974;2023-03-26T00:08:23;464.2;;;-146.1;100.0
45864;BME280;31579;52.354;16.974;2023-03-26T00:09:27;464.7;;;-146.1;100.0
45864;BME280;31579;52.354;16.974;2023-03-26T00:10:31;465.6;;;-146.1;100.0
45864;BME280;31579;52.354;16.974;2023-03-26T00:11:35;466.0;;;-146.1;100.0
45864;BME280;31579;52.354;16.974;2023-03-26T00:12:39;466.3;;;-146.1;100.0
45864;BME280;31579;52.354;16.974;2023-03-26T00:13:43;465.9;;;-146.1;100.0
45864;BME280;31579;52.354;16.974;2023-03-26T00:14:47;466.0;;;-146.1;100.0
45864;BME280;31579;52.354;16.974;2023-03-26T00:15:51;466.6;;;-146.1;100.0
45864;BME280;31579;52.354;16.974;2023-03-26T00:16:55;466.3;;;-146.1;100.0
45864;BME280;31579;52.354;16.974;2023-03-26T00:17:59;465.9;;;-146.1;100.0
45864;BME280;31579;52.354;16.974;2023-03-26T00:19:01;477.3;;;-146.1;100.0
45864;BME280;31579;52.354;16.974;2023-03-26T00:20:06;473.0;;;-146.1;100.0
45864;BME280;31579;52.354;16.974;2023-03-26T00:21:12;472.0;;;-146.1;100.0
45864;BME280;31579;52.354;16.974;2023-03-26T00:22:15;470.5;;;-146.1;100.0
45864;BME280;31579;52.354;16.974;2023-03-26T00:23:19;469.4;;;-146.1;100.0
45864;BME280;31579;52.354;16.974;2023-03-26T00:24:23;468.2;;;-146.1;100.0
45864;BME280;31579;52.354;16.974;2023-03-26T00:25:27;467.3;;;-146.1;100.0
45864;BME280;31579;52.354;16.974;2023-03-26T00:26:32;467.1;;;-146.1;100.0
45864;BME280;31579;52.354;16.974;2023-03-26T00:27:35;466.8;;;-146.1;100.0
45864;BME280;31579;52.354;16.974;2023-03-26T00:28:39;466.7;;;-146.1;100.0
45864;BME280;31579;52.354;16.974;2023-03-26T00:29:43;466.3;;;-146.1;100.0
45864;BME280;31579;52.354;16.974;2023-03-26T00:30:55;465.9;;;-146.1;100.0
45864;BME280;31579;52.354;16.974;2023-03-26T00:31:51;465.2;;;-146.1;100.0
45864;BME280;31579;52.354;16.974;2023-03-26T00:32:55;465.3;;;-146.1;100.0
45864;BME280;31579;52.354;16.974;2023-03-26T00:33:59;465.7;;;-146.1;100.0
45864;BME280;31579;52.354;16.974;2023-03-26T00:35:01;476.8;;;-146.1;100.0
45864;BME280;31579;52.354;16.974;2023-03-26T00:36:04;480.7;;;-146.1;100.0
45864;BME280;31579;52.354;16.974;2023-03-26T00:37:08;476.0;;;-146.1;100.0
45864;BME280;31579;52.354;16.974;2023-03-26T00:38:15;474.2;;;-146.1;100.0
45864;BME280;31579;52.354;16.974;2023-03-26T00:39:16;473.0;;;-146.1;100.0
45864;BME280;31579;52.354;16.974;2023-03-26T00:40:20;471.8;;;-146.1;100.0
45864;BME280;31579;52.354;16.974;2023-03-26T00:41:24;470.5;;;-146.1;100.0
45864;BME280;31579;52.354;16.974;2023-03-26T00:42:28;469.7;;;-146.1;100.0
45864;BME280;31579;52.354;16.974;2023-03-26T00:43:32;468.8;;;-146.1;100.0
45864;BME280;31579;52.354;16.974;2023-03-26T00:44:36;468.0;;;-146.1;100.0
45864;BME280;31579;52.354;16.974;2023-03-26T00:45:40;467.4;;;-146.1;100.0
45864;BME280;31579;52.354;16.974;2023-03-26T00:46:45;467.3;;;-146.1;100.0
45864;BME280;31579;52.354;16.974;2023-03-26T00:47:49;466.6;;;-146.1;100.0
45864;BME280;31579;52.354;16.974;2023-03-26T00:48:53;466.2;;;-146.1;100.0
45864;BME280;31579;52.354;16.974;2023-03-26T00:49:58;465.9;;;-146.1;100.0
45864;BME280;31579;52.354;16.974;2023-03-26T00:51:09;428.6;;;-146.1;100.0
45864;BME280;31579;52.354;16.974;2023-03-26T00:52:13;446.8;;;-146.1;100.0
45864;BME280;31579;52.354;16.974;2023-03-26T00:53:17;452.2;;;-146.1;100.0
45864;BME280;31579;52.354;16.974;2023-03-26T00:54:22;455.5;;;-146.1;100.0
45864;BME280;31579;52.354;16.974;2023-03-26T00:55:26;456.7;;;-146.1;100.0
45864;BME280;31579;52.354;16.974;2023-03-26T00:56:30;457.8;;;-146.1;100.0
45864;BME280;31579;52.354;16.974;2023-03-26T00:57:34;458.4;;;-146.1;100.0
45864;BME280;31579;52.354;16.974;2023-03-26T00:58:38;458.7;;;-146.1;100.0
45864;BME280;31579;52.354;16.974;2023-03-26T00:59:42;459.4;;;-146.1;100.0
45864;BME280;31579;52.354;16.974;2023-03-26T01:00:49;460.2;;;-146.1;100.0
45864;BME280;31579;52.354;16.974;2023-03-26T01:01:50;460.2;;;-146.1;100.0
45864;BME280;31579;52.354;16.974;2023-03-26T01:02:54;460.2;;;-146.1;100.0
45864;BME280;31579;52.354;16.974;2023-03-26T01:04:18;460.0;;;-146.1;100.0
45864;BME280;31579;52.354;16.974;2023-03-26T01:05:25;459.9;;;-146.1;100.0
45864;BME280;31579;52.354;16.974;2023-03-26T01:07:09;467.8;;;-146.1;100.0
45864;BME280;31579;52.354;16.974;2023-03-26T01:08:18;466.8;;;-146.1;100.0
45864;BME280;31579;52.354;16.974;2023-03-26T01:09:18;465.9;;;-146.1;100.0
45864;BME280;31579;52.354;16.974;2023-03-26T01:10:22;465.3;;;-146.1;100.0
45864;BME280;31579;52.354;16.974;2023-03-26T01:11:27;465.3;;;-146.1;100.0
45864;BME280;31579;52.354;16.974;2023-03-26T01:12:30;464.6;;;-146.1;100.0
45864;BME280;31579;52.354;16.974;2023-03-26T01:13:35;464.3;;;-146.1;100.0
45864;BME280;31579;52.354;16.974;2023-03-26T01:14:38;463.7;;;-146.1;100.0
45864;BME280;31579;52.354;16.974;2023-03-26T01:15:42;463.5;;;-146.1;100.0
45864;BME280;31579;52.354;16.974;2023-03-26T01:16:48;463.4;;;-146.1;100.0
45864;BME280;31579;52.354;16.974;2023-03-26T01:17:50;463.2;;;-146.1;100.0
45864;BME280;31579;52.354;16.974;2023-03-26T01:18:54;463.1;;;-146.1;100.0
45864;BME280;31579;52.354;16.974;2023-03-26T01:20:01;463.0;;;-146.1;100.0
45864;BME280;31579;52.354;16.974;2023-03-26T01:21:02;463.5;;;-146.1;100.0
45864;BME280;31579;52.354;16.974;2023-03-26T01:22:05;475.6;;;-146.1;100.0
45864;BME280;31579;52.354;16.974;2023-03-26T01:23:06;480.1;;;-146.1;100.0
45864;BME280;31579;52.354;16.974;2023-03-26T01:24:10;474.9;;;-146.1;100.0
45864;BME280;31579;52.354;16.974;2023-03-26T01:25:14;472.8;;;-146.1;100.0
45864;BME280;31579;52.354;16.974;2023-03-26T01:26:24;471.2;;;-146.1;100.0
45864;BME280;31579;52.354;16.974;2023-03-26T01:28:26;469.3;;;-146.1;100.0
45864;BME280;31579;52.354;16.974;2023-03-26T01:29:32;468.8;;;-146.1;100.0
45864;BME280;31579;52.354;16.974;2023-03-26T01:30:39;468.2;;;-146.1;100.0
45864;BME280;31579;52.354;16.974;2023-03-26T01:31:43;467.5;;;-146.1;100.0
45864;BME280;31579;52.354;16.974;2023-03-26T01:33:51;466.8;;;-146.1;100.0
45864;BME280;31579;52.354;16.974;2023-03-26T01:36:00;467.0;;;-146.1;100.0
45864;BME280;31579;52.354;16.974;2023-03-26T01:37:03;466.7;;;-146.1;100.0
45864;BME280;31579;52.354;16.974;2023-03-26T01:39:15;466.8;;;-146.1;100.0
45864;BME280;31579;52.354;16.974;2023-03-26T01:40:16;466.9;;;-146.1;100.0
45864;BME280;31579;52.354;16.974;2023-03-26T01:43:30;467.2;;;-146.1;100.0
45864;BME280;31579;52.354;16.974;2023-03-26T01:44:33;466.9;;;-146.1;100.0
45864;BME280;31579;52.354;16.974;2023-03-26T01:45:33;466.6;;;-146.1;100.0
45864;BME280;31579;52.354;16.974;2023-03-26T01:46:37;466.7;;;-146.1;100.0
45864;BME280;31579;52.354;16.974;2023-03-26T01:47:41;466.6;;;-146.1;100.0
45864;BME280;31579;52.354;16.974;2023-03-26T01:48:46;466.7;;;-146.1;100.0
45864;BME280;31579;52.354;16.974;2023-03-26T01:49:49;466.6;;;-146.1;100.0
45864;BME280;31579;52.354;16.974;2023-03-26T01:50:53;467.0;;;-146.1;100.0
45864;BME280;31579;52.354;16.974;2023-03-26T01:51:57;466.7;;;-146.1;100.0
45864;BME280;31579;52.354;16.974;2023-03-26T01:53:01;466.4;;;-146.1;100.0
45864;BME280;31579;52.354;16.974;2023-03-26T01:54:06;466.1;;;-146.1;100.0
45864;BME280;31579;52.354;16.974;2023-03-26T01:55:09;465.7;;;-146.1;100.0
45864;BME280;31579;52.354;16.974;2023-03-26T02:00:31;465.1;;;-146.1;100.0
45864;BME280;31579;52.354;16.974;2023-03-26T02:03:44;464.5;;;-146.1;100.0
45864;BME280;31579;52.354;16.974;2023-03-26T02:05:53;464.3;;;-146.1;100.0
45864;BME280;31579;52.354;16.974;2023-03-26T02:09:01;474.1;;;-146.1;100.0
45864;BME280;31579;52.354;16.974;2023-03-26T02:10:10;469.8;;;-146.1;100.0
45864;BME280;31579;52.354;16.974;2023-03-26T02:11:10;468.4;;;-146.1;100.0
45864;BME280;31579;52.354;16.974;2023-03-26T02:12:13;466.8;;;-146.1;100.0
45864;BME280;31579;52.354;16.974;2023-03-26T02:13:17;466.3;;;-146.1;100.0
45864;BME280;31579;52.354;16.974;2023-03-26T02:14:21;465.2;;;-146.1;100.0
45864;BME280;31579;52.354;16.974;2023-03-26T02:15:26;464.7;;;-146.1;100.0
45864;BME280;31579;52.354;16.974;2023-03-26T02:16:30;464.3;;;-146.1;100.0
45864;BME280;31579;52.354;16.974;2023-03-26T02:17:34;464.1;;;-146.1;100.0
45864;BME280;31579;52.354;16.974;2023-03-26T02:18:39;464.2;;;-146.1;100.0
45864;BME280;31579;52.354;16.974;2023-03-26T02:19:43;463.6;;;-146.1;100.0
45864;BME280;31579;52.354;16.974;2023-03-26T02:20:47;463.4;;;-146.1;100.0
45864;BME280;31579;52.354;16.974;2023-03-26T02:21:52;463.4;;;-146.1;100.0
45864;BME280;31579;52.354;16.974;2023-03-26T02:22:56;463.1;;;-146.1;100.0
45864;BME280;31579;52.354;16.974;2023-03-26T02:23:59;462.8;;;-146.1;100.0
45864;BME280;31579;52.354;16.974;2023-03-26T02:25:03;462.5;;;-146.1;100.0
45864;BME280;31579;52.354;16.974;2023-03-26T02:26:08;462.2;;;-146.1;100.0
45864;BME280;31579;52.354;16.974;2023-03-26T02:27:11;462.2;;;-146.1;100.0
45864;BME280;31579;52.354;16.974;2023-03-26T02:28:15;462.1;;;-146.1;100.0
45864;BME280;31579;52.354;16.974;2023-03-26T02:29:19;461.9;;;-146.1;100.0
45864;BME280;31579;52.354;16.974;2023-03-26T02:30:24;461.5;;;-146.1;100.0
45864;BME280;31579;52.354;16.974;2023-03-26T02:31:27;461.6;;;-146.1;100.0
45864;BME280;31579;52.354;16.974;2023-03-26T02:32:31;461.9;;;-146.1;100.0
45864;BME280;31579;52.354;16.974;2023-03-26T02:33:35;461.8;;;-146.1;100.0
45864;BME280;31579;52.354;16.974;2023-03-26T02:34:39;461.7;;;-146.1;100.0
45864;BME280;31579;52.354;16.974;2023-03-26T02:35:43;461.3;;;-146.1;100.0
45864;BME280;31579;52.354;16.974;2023-03-26T02:36:47;461.2;;;-146.1;100.0
45864;BME280;31579;52.354;16.974;2023-03-26T02:37:51;460.8;;;-146.1;100.0
45864;BME280;31579;52.354;16.974;2023-03-26T02:38:55;459.9;;;-146.1;100.0
45864;BME280;31579;52.354;16.974;2023-03-26T02:40:00;459.7;;;-146.1;100.0
45864;BME280;31579;52.354;16.974;2023-03-26T02:41:05;459.7;;;-146.1;100.0
45864;BME280;31579;52.354;16.974;2023-03-26T02:42:10;459.5;;;-146.1;100.0
45864;BME280;31579;52.354;16.974;2023-03-26T02:43:14;459.0;;;-146.1;100.0
45864;BME280;31579;52.354;16.974;2023-03-26T02:44:18;459.2;;;-146.1;100.0
45864;BME280;31579;52.354;16.974;2023-03-26T02:45:22;458.8;;;-146.1;100.0
45864;BME280;31579;52.354;16.974;2023-03-26T02:46:26;459.2;;;-146.1;100.0
45864;BME280;31579;52.354;16.974;2023-03-26T02:47:30;458.8;;;-146.1;100.0
45864;BME280;31579;52.354;16.974;2023-03-26T02:48:34;458.7;;;-146.1;100.0
45864;BME280;31579;52.354;16.974;2023-03-26T02:49:38;458.4;;;-146.1;100.0
45864;BME280;31579;52.354;16.974;2023-03-26T02:50:42;458.4;;;-146.1;100.0
45864;BME280;31579;52.354;16.974;2023-03-26T02:51:46;458.2;;;-146.1;100.0
45864;BME280;31579;52.354;16.974;2023-03-26T02:52:50;458.1;;;-146.1;100.0
45864;BME280;31579;52.354;16.974;2023-03-26T02:53:54;458.3;;;-146.1;100.0
45864;BME280;31579;52.354;16.974;2023-03-26T02:54:58;458.3;;;-146.1;100.0
45864;BME280;31579;52.354;16.974;2023-03-26T02:56:00;470.7;;;-146.1;100.0
45864;BME280;31579;52.354;16.974;2023-03-26T02:57:03;471.2;;;-146.1;100.0
45864;BME280;31579;52.354;16.974;2023-03-26T02:58:07;467.4;;;-146.1;100.0
45864;BME280;31579;52.354;16.974;2023-03-26T02:59:11;465.4;;;-146.1;100.0
45864;BME280;31579;52.354;16.974;2023-03-26T03:00:15;464.6;;;-146.1;100.0
45864;BME280;31579;52.354;16.974;2023-03-26T03:01:19;463.6;;;-146.1;100.0
45864;BME280;31579;52.354;16.974;2023-03-26T03:02:23;462.4;;;-146.1;100.0
45864;BME280;31579;52.354;16.974;2023-03-26T03:03:27;461.8;;;-146.1;100.0
45864;BME280;31579;52.354;16.974;2023-03-26T03:04:31;460.8;;;-146.1;100.0
45864;BME280;31579;52.354;16.974;2023-03-26T03:05:35;460.3;;;-146.1;100.0
45864;BME280;31579;52.354;16.974;2023-03-26T03:06:39;460.0;;;-146.1;100.0
45864;BME280;31579;52.354;16.974;2023-03-26T03:07:44;459.7;;;-146.1;100.0
45864;BME280;31579;52.354;16.974;2023-03-26T03:08:47;459.6;;;-146.1;100.0
45864;BME280;31579;52.354;16.974;2023-03-26T03:09:51;458.8;;;-146.1;100.0
45864;BME280;31579;52.354;16.974;2023-03-26T03:10:56;458.7;;;-146.1;100.0
45864;BME280;31579;52.354;16.974;2023-03-26T03:11:59;458.8;;;-146.1;100.0
45864;BME280;31579;52.354;16.974;2023-03-26T03:13:03;458.9;;;-146.1;100.0
45864;BME280;31579;52.354;16.974;2023-03-26T03:14:07;458.5;;;-146.1;100.0
45864;BME280;31579;52.354;16.974;2023-03-26T03:15:11;458.7;;;-146.1;100.0
45864;BME280;31579;52.354;16.974;2023-03-26T03:16:15;458.6;;;-146.1;100.0
45864;BME280;31579;52.354;16.974;2023-03-26T03:17:19;458.5;;;-146.1;100.0
45864;BME280;31579;52.354;16.974;2023-03-26T03:18:23;458.3;;;-146.1;100.0
45864;BME280;31579;52.354;16.974;2023-03-26T03:19:27;458.4;;;-146.1;100.0
45864;BME280;31579;52.354;16.974;2023-03-26T03:20:31;458.7;;;-146.1;100.0
45864;BME280;31579;52.354;16.974;2023-03-26T03:21:35;458.7;;;-146.1;100.0
45864;BME280;31579;52.354;16.974;2023-03-26T03:22:39;458.8;;;-146.1;100.0
45864;BME280;31579;52.354;16.974;2023-03-26T03:23:43;458.8;;;-146.1;100.0
45864;BME280;31579;52.354;16.974;2023-03-26T03:24:47;459.3;;;-146.1;100.0
45864;BME280;31579;52.354;16.974;2023-03-26T03:25:51;459.5;;;-146.1;100.0
45864;BME280;31579;52.354;16.974;2023-03-26T03:26:55;459.5;;;-146.1;100.0
45864;BME280;31579;52.354;16.974;2023-03-26T03:27:59;459.7;;;-146.1;100.0
45864;BME280;31579;52.354;16.974;2023-03-26T03:29:03;460.1;;;-146.1;100.0
45864;BME280;31579;52.354;16.974;2023-03-26T03:30:07;460.3;;;-146.1;100.0
45864;BME280;31579;52.354;16.974;2023-03-26T03:31:11;460.0;;;-146.1;100.0
45864;BME280;31579;52.354;16.974;2023-03-26T03:32:15;460.1;;;-146.1;100.0
45864;BME280;31579;52.354;16.974;2023-03-26T03:33:19;460.2;;;-146.1;100.0
45864;BME280;31579;52.354;16.974;2023-03-26T03:34:23;460.2;;;-146.1;100.0
45864;BME280;31579;52.354;16.974;2023-03-26T03:35:28;460.3;;;-146.1;100.0
45864;BME280;31579;52.354;16.974;2023-03-26T03:36:31;460.7;;;-146.1;100.0
45864;BME280;31579;52.354;16.974;2023-03-26T03:37:35;460.7;;;-146.1;100.0
45864;BME280;31579;52.354;16.974;2023-03-26T03:38:39;461.0;;;-146.1;100.0
45864;BME280;31579;52.354;16.974;2023-03-26T03:39:43;460.8;;;-146.1;100.0
45864;BME280;31579;52.354;16.974;2023-03-26T03:40:47;460.8;;;-146.1;100.0
45864;BME280;31579;52.354;16.974;2023-03-26T03:41:51;460.9;;;-146.1;100.0
45864;BME280;31579;52.354;16.974;2023-03-26T03:42:55;461.2;;;-146.1;100.0
45864;BME280;31579;52.354;16.974;2023-03-26T03:43:59;461.1;;;-146.1;100.0
45864;BME280;31579;52.354;16.974;2023-03-26T03:45:03;461.2;;;-146.1;100.0
45864;BME280;31579;52.354;16.974;2023-03-26T03:46:07;461.4;;;-146.1;100.0
45864;BME280;31579;52.354;16.974;2023-03-26T03:47:11;461.4;;;-146.1;100.0
45864;BME280;31579;52.354;16.974;2023-03-26T03:48:15;461.5;;;-146.1;100.0
45864;BME280;31579;52.354;16.974;2023-03-26T03:49:19;461.4;;;-146.1;100.0
45864;BME280;31579;52.354;16.974;2023-03-26T03:50:23;461.3;;;-146.1;100.0
45864;BME280;31579;52.354;16.974;2023-03-26T03:51:27;461.3;;;-146.1;100.0
45864;BME280;31579;52.354;16.974;2023-03-26T03:52:31;461.5;;;-146.1;100.0
45864;BME280;31579;52.354;16.974;2023-03-26T03:53:35;461.5;;;-146.1;100.0
45864;BME280;31579;52.354;16.974;2023-03-26T03:54:39;461.3;;;-146.1;100.0
45864;BME280;31579;52.354;16.974;2023-03-26T03:55:43;461.3;;;-146.1;100.0
45864;BME280;31579;52.354;16.974;2023-03-26T03:56:47;461.0;;;-146.1;100.0
45864;BME280;31579;52.354;16.974;2023-03-26T03:57:51;461.1;;;-146.1;100.0
45864;BME280;31579;52.354;16.974;2023-03-26T03:58:55;461.4;;;-146.1;100.0
45864;BME280;31579;52.354;16.974;2023-03-26T03:59:59;461.1;;;-146.1;100.0
45864;BME280;31579;52.354;16.974;2023-03-26T04:01:03;468.7;;;-146.1;100.0
45864;BME280;31579;52.354;16.974;2023-03-26T04:02:07;465.8;;;-146.1;100.0
45864;BME280;31579;52.354;16.974;2023-03-26T04:03:11;464.8;;;-146.1;100.0
45864;BME280;31579;52.354;16.974;2023-03-26T04:04:15;463.9;;;-146.1;100.0
45864;BME280;31579;52.354;16.974;2023-03-26T04:05:19;463.4;;;-146.1;100.0
45864;BME280;31579;52.354;16.974;2023-03-26T04:06:24;462.9;;;-146.1;100.0
45864;BME280;31579;52.354;16.974;2023-03-26T04:07:28;462.7;;;-146.1;100.0
45864;BME280;31579;52.354;16.974;2023-03-26T04:08:32;462.6;;;-146.1;100.0
45864;BME280;31579;52.354;16.974;2023-03-26T04:09:36;462.1;;;-146.1;100.0
45864;BME280;31579;52.354;16.974;2023-03-26T04:10:40;462.3;;;-146.1;100.0
45864;BME280;31579;52.354;16.974;2023-03-26T04:11:44;461.5;;;-146.1;100.0
45864;BME280;31579;52.354;16.974;2023-03-26T04:12:48;461.1;;;-146.1;100.0
45864;BME280;31579;52.354;16.974;2023-03-26T04:13:52;460.9;;;-146.1;100.0
45864;BME280;31579;52.354;16.974;2023-03-26T04:14:56;460.8;;;-146.1;100.0
45864;BME280;31579;52.354;16.974;2023-03-26T04:16:00;460.8;;;-146.1;100.0
45864;BME280;31579;52.354;16.974;2023-03-26T04:17:05;460.9;;;-146.1;100.0
45864;BME280;31579;52.354;16.974;2023-03-26T04:18:09;460.5;;;-146.1;100.0
45864;BME280;31579;52.354;16.974;2023-03-26T04:19:13;460.3;;;-146.1;100.0
45864;BME280;31579;52.354;16.974;2023-03-26T04:20:17;459.9;;;-146.1;100.0
45864;BME280;31579;52.354;16.974;2023-03-26T04:21:10;462.1;;;-146.1;100.0
45864;BME280;31579;52.354;16.974;2023-03-26T04:22:15;460.2;;;-146.1;100.0
45864;BME280;31579;52.354;16.974;2023-03-26T04:23:18;459.7;;;-146.1;100.0
45864;BME280;31579;52.354;16.974;2023-03-26T04:24:22;459.4;;;-146.1;100.0
45864;BME280;31579;52.354;16.974;2023-03-26T04:25:26;458.9;;;-146.1;100.0
45864;BME280;31579;52.354;16.974;2023-03-26T04:26:30;458.9;;;-146.1;100.0
45864;BME280;31579;52.354;16.974;2023-03-26T04:27:35;458.5;;;-146.1;100.0
45864;BME280;31579;52.354;16.974;2023-03-26T04:28:41;458.4;;;-146.1;100.0
45864;BME280;31579;52.354;16.974;2023-03-26T04:29:43;458.3;;;-146.1;100.0
45864;BME280;31579;52.354;16.974;2023-03-26T04:30:46;458.7;;;-146.1;100.0
45864;BME280;31579;52.354;16.974;2023-03-26T04:31:51;459.1;;;-146.1;100.0
45864;BME280;31579;52.354;16.974;2023-03-26T04:32:55;459.2;;;-146.1;100.0
45864;BME280;31579;52.354;16.974;2023-03-26T04:34:03;459.1;;;-146.1;100.0
45864;BME280;31579;52.354;16.974;2023-03-26T04:35:03;459.1;;;-146.1;100.0
45864;BME280;31579;52.354;16.974;2023-03-26T04:36:07;470.2;;;-146.1;100.0
45864;BME280;31579;52.354;16.974;2023-03-26T04:37:14;465.3;;;-146.1;100.0
45864;BME280;31579;52.354;16.974;2023-03-26T04:38:14;463.6;;;-146.1;100.0
45864;BME280;31579;52.354;16.974;2023-03-26T04:39:18;462.4;;;-146.1;100.0
45864;BME280;31579;52.354;16.974;2023-03-26T04:40:23;461.7;;;-146.1;100.0
45864;BME280;31579;52.354;16.974;2023-03-26T04:41:27;461.0;;;-146.1;100.0
45864;BME280;31579;52.354;16.974;2023-03-26T04:42:31;460.4;;;-146.1;100.0
45864;BME280;31579;52.354;16.974;2023-03-26T04:43:35;460.0;;;-146.1;100.0
45864;BME280;31579;52.354;16.974;2023-03-26T04:44:39;459.5;;;-146.1;100.0
45864;BME280;31579;52.354;16.974;2023-03-26T04:45:43;459.3;;;-146.1;100.0
45864;BME280;31579;52.354;16.974;2023-03-26T04:46:48;459.0;;;-146.1;100.0
45864;BME280;31579;52.354;16.974;2023-03-26T04:47:51;458.9;;;-146.1;100.0
45864;BME280;31579;52.354;16.974;2023-03-26T04:48:55;458.7;;;-146.1;100.0
45864;BME280;31579;52.354;16.974;2023-03-26T04:49:59;458.2;;;-146.1;100.0
45864;BME280;31579;52.354;16.974;2023-03-26T04:51:03;458.0;;;-146.1;100.0
45864;BME280;31579;52.354;16.974;2023-03-26T04:52:05;469.6;;;-146.1;100.0
45864;BME280;31579;52.354;16.974;2023-03-26T04:53:13;464.9;;;-146.1;100.0
45864;BME280;31579;52.354;16.974;2023-03-26T04:54:15;463.3;;;-146.1;100.0
45864;BME280;31579;52.354;16.974;2023-03-26T04:55:20;462.3;;;-146.1;100.0
45864;BME280;31579;52.354;16.974;2023-03-26T04:57:28;460.6;;;-146.1;100.0
45864;BME280;31579;52.354;16.974;2023-03-26T04:58:30;459.8;;;-146.1;100.0
45864;BME280;31579;52.354;16.974;2023-03-26T04:59:34;459.1;;;-146.1;100.0
45864;BME280;31579;52.354;16.974;2023-03-26T05:00:40;459.1;;;-146.1;100.0
45864;BME280;31579;52.354;16.974;2023-03-26T05:01:43;458.9;;;-146.1;100.0
45864;BME280;31579;52.354;16.974;2023-03-26T05:02:47;458.7;;;-146.1;100.0
45864;BME280;31579;52.354;16.974;2023-03-26T05:03:51;458.1;;;-146.1;100.0
45864;BME280;31579;52.354;16.974;2023-03-26T05:04:55;457.9;;;-146.1;100.0
45864;BME280;31579;52.354;16.974;2023-03-26T05:05:59;457.4;;;-146.1;100.0
45864;BME280;31579;52.354;16.974;2023-03-26T05:07:03;456.9;;;-146.1;100.0
45864;BME280;31579;52.354;16.974;2023-03-26T05:08:05;469.0;;;-146.1;100.0
45864;BME280;31579;52.354;16.974;2023-03-26T05:09:10;463.9;;;-146.1;100.0
45864;BME280;31579;52.354;16.974;2023-03-26T05:10:14;462.6;;;-146.1;100.0
45864;BME280;31579;52.354;16.974;2023-03-26T05:11:18;460.8;;;-146.1;100.0
45864;BME280;31579;52.354;16.974;2023-03-26T05:12:22;460.0;;;-146.1;100.0
45864;BME280;31579;52.354;16.974;2023-03-26T05:13:26;459.5;;;-146.1;100.0
45864;BME280;31579;52.354;16.974;2023-03-26T05:14:30;458.7;;;-146.1;100.0
45864;BME280;31579;52.354;16.974;2023-03-26T05:15:34;457.7;;;-146.1;100.0
45864;BME280;31579;52.354;16.974;2023-03-26T05:16:38;457.6;;;-146.1;100.0
45864;BME280;31579;52.354;16.974;2023-03-26T05:17:42;456.9;;;-146.1;100.0
45864;BME280;31579;52.354;16.974;2023-03-26T05:18:46;456.7;;;-146.1;100.0
45864;BME280;31579;52.354;16.974;2023-03-26T05:19:50;456.3;;;-146.1;100.0
45864;BME280;31579;52.354;16.974;2023-03-26T05:20:54;455.9;;;-146.1;100.0
45864;BME280;31579;52.354;16.974;2023-03-26T05:21:58;455.9;;;-146.1;100.0
45864;BME280;31579;52.354;16.974;2023-03-26T05:23:00;467.6;;;-146.1;100.0
45864;BME280;31579;52.354;16.974;2023-03-26T05:24:03;468.2;;;-146.1;100.0
45864;BME280;31579;52.354;16.974;2023-03-26T05:25:06;473.1;;;-146.1;100.0
45864;BME280;31579;52.354;16.974;2023-03-26T05:26:16;458.8;;;-146.1;100.0
45864;BME280;31579;52.354;16.974;2023-03-26T05:27:20;459.1;;;-146.1;100.0
45864;BME280;31579;52.354;16.974;2023-03-26T05:28:24;458.3;;;-146.1;100.0
45864;BME280;31579;52.354;16.974;2023-03-26T05:29:28;457.3;;;-146.1;100.0
45864;BME280;31579;52.354;16.974;2023-03-26T05:30:32;457.5;;;-146.1;100.0
45864;BME280;31579;52.354;16.974;2023-03-26T05:31:37;457.5;;;-146.1;100.0
45864;BME280;31579;52.354;16.974;2023-03-26T05:32:41;457.4;;;-146.1;100.0
45864;BME280;31579;52.354;16.974;2023-03-26T05:33:45;457.0;;;-146.1;100.0
45864;BME280;31579;52.354;16.974;2023-03-26T05:34:49;456.9;;;-146.1;100.0
45864;BME280;31579;52.354;16.974;2023-03-26T05:36:57;456.0;;;-146.1;100.0
45864;BME280;31579;52.354;16.974;2023-03-26T05:38:09;413.9;;;-146.1;100.0
45864;BME280;31579;52.354;16.974;2023-03-26T05:39:13;434.8;;;-146.1;100.0
45864;BME280;31579;52.354;16.974;2023-03-26T05:40:17;440.8;;;-146.1;100.0
45864;BME280;31579;52.354;16.974;2023-03-26T05:41:21;443.6;;;-146.1;100.0
45864;BME280;31579;52.354;16.974;2023-03-26T05:42:25;446.2;;;-146.1;100.0
45864;BME280;31579;52.354;16.974;2023-03-26T05:43:29;447.4;;;-146.1;100.0
45864;BME280;31579;52.354;16.974;2023-03-26T05:44:33;448.1;;;-146.1;100.0
45864;BME280;31579;52.354;16.974;2023-03-26T05:45:37;448.5;;;-146.1;100.0
45864;BME280;31579;52.354;16.974;2023-03-26T05:46:41;448.7;;;-146.1;100.0
45864;BME280;31579;52.354;16.974;2023-03-26T05:47:45;449.4;;;-146.1;100.0
45864;BME280;31579;52.354;16.974;2023-03-26T05:48:49;450.1;;;-146.1;100.0
45864;BME280;31579;52.354;16.974;2023-03-26T05:49:53;450.3;;;-146.1;100.0
45864;BME280;31579;52.354;16.974;2023-03-26T05:50:57;449.6;;;-146.1;100.0
45864;BME280;31579;52.354;16.974;2023-03-26T05:52:01;450.0;;;-146.1;100.0
45864;BME280;31579;52.354;16.974;2023-03-26T05:53:05;450.0;;;-146.1;100.0
45864;BME280;31579;52.354;16.974;2023-03-26T05:54:09;449.6;;;-146.1;100.0
45864;BME280;31579;52.354;16.974;2023-03-26T05:55:13;449.5;;;-146.1;100.0
45864;BME280;31579;52.354;16.974;2023-03-26T05:56:17;449.4;;;-146.1;100.0
45864;BME280;31579;52.354;16.974;2023-03-26T05:57:21;450.2;;;-146.1;100.0
45864;BME280;31579;52.354;16.974;2023-03-26T05:58:16;460.5;;;-146.1;100.0
45864;BME280;31579;52.354;16.974;2023-03-26T05:59:20;455.9;;;-146.1;100.0
45864;BME280;31579;52.354;16.974;2023-03-26T06:00:24;455.1;;;-146.1;100.0
45864;BME280;31579;52.354;16.974;2023-03-26T06:01:28;454.2;;;-146.1;100.0
45864;BME280;31579;52.354;16.974;2023-03-26T06:02:32;453.4;;;-146.1;100.0